createdAt,value
2018-02-15T00:01:36.649Z,4.93
2018-02-15T00:04:04.191Z,4.33
2018-02-15T00:06:31.739Z,2.93
2018-02-15T00:08:59.544Z,5.10
2018-02-15T00:11:27.302Z,4.60
2018-02-15T00:13:55.055Z,3.97
2018-02-15T00:16:22.919Z,4.47
2018-02-15T00:18:50.543Z,3.50
2018-02-15T00:21:18.369Z,3.77
2018-02-15T00:23:45.925Z,5.20
2018-02-15T00:26:13.515Z,4.23
2018-02-15T00:28:41.055Z,4.03
2018-02-15T00:31:08.610Z,3.97
2018-02-15T00:33:36.265Z,3.53
2018-02-15T00:36:03.817Z,4.43
2018-02-15T00:38:31.474Z,4.97
2018-02-15T00:40:59.024Z,4.40
2018-02-15T00:43:26.622Z,4.50
2018-02-15T00:45:54.169Z,4.10
2018-02-15T00:48:21.706Z,2.53
2018-02-15T00:50:49.242Z,2.57
2018-02-15T00:53:16.798Z,3.30
2018-02-15T00:55:44.517Z,4.73
2018-02-15T00:58:12.055Z,4.30
2018-02-15T01:00:39.607Z,4.53
2018-02-15T01:03:07.269Z,3.53
2018-02-15T01:05:34.888Z,3.50
2018-02-15T01:08:02.461Z,5.00
2018-02-15T01:10:30.003Z,5.00
2018-02-15T01:12:59.373Z,4.63
2018-02-15T01:15:26.942Z,2.90
2018-02-15T01:17:54.486Z,6.20
2018-02-15T01:20:22.038Z,4.00
2018-02-15T01:22:49.587Z,5.03
2018-02-15T01:25:17.158Z,6.30
2018-02-15T01:27:44.911Z,5.67
2018-02-15T01:30:12.464Z,4.80
2018-02-15T01:32:39.990Z,6.47
2018-02-15T01:35:07.600Z,6.80
2018-02-15T01:37:35.292Z,4.30
2018-02-15T01:40:03.046Z,6.20
2018-02-15T01:42:30.776Z,4.87
2018-02-15T01:44:58.329Z,4.37
2018-02-15T01:47:26.016Z,6.13
2018-02-15T01:50:04.177Z,3.20
2018-02-15T01:52:31.725Z,6.37
2018-02-15T01:54:59.533Z,5.33
2018-02-15T01:57:27.291Z,7.23
2018-02-15T01:59:54.834Z,6.17
2018-02-15T02:02:22.378Z,5.73
2018-02-15T02:04:49.919Z,7.90
2018-02-15T02:07:17.457Z,3.60
2018-02-15T02:09:45.340Z,6.30
2018-02-15T02:12:12.891Z,5.93
2018-02-15T02:14:40.422Z,7.17
2018-02-15T02:17:07.954Z,3.53
2018-02-15T02:19:35.495Z,4.53
2018-02-15T02:22:03.032Z,5.47
2018-02-15T02:24:30.793Z,8.10
2018-02-15T02:26:58.566Z,5.50
2018-02-15T02:29:26.092Z,7.33
2018-02-15T02:31:53.830Z,8.13
2018-02-15T02:34:21.602Z,8.93
2018-02-15T02:36:49.363Z,6.53
2018-02-15T02:39:16.904Z,6.07
2018-02-15T02:41:44.448Z,6.50
2018-02-15T02:44:12.005Z,8.93
2018-02-15T02:46:39.806Z,7.80
2018-02-15T02:49:07.437Z,6.70
2018-02-15T02:51:34.988Z,7.90
2018-02-15T02:54:02.655Z,5.17
2018-02-15T02:56:30.214Z,8.97
2018-02-15T02:58:57.754Z,8.70
2018-02-15T03:01:26.061Z,6.70
2018-02-15T03:03:53.633Z,7.90
2018-02-15T03:06:21.178Z,9.03
2018-02-15T03:08:48.763Z,8.47
2018-02-15T03:11:16.344Z,5.30
2018-02-15T03:13:43.883Z,8.63
2018-02-15T03:16:11.416Z,9.07
2018-02-15T03:18:38.948Z,8.10
2018-02-15T03:21:07.260Z,8.63
2018-02-15T03:23:34.943Z,6.90
2018-02-15T03:26:02.509Z,6.43
2018-02-15T03:28:30.056Z,7.60
2018-02-15T03:30:57.601Z,6.17
2018-02-15T03:33:25.165Z,8.73
2018-02-15T03:35:52.920Z,6.13
2018-02-15T03:38:20.459Z,6.30
2018-02-15T03:40:48.024Z,5.33
2018-02-15T03:43:15.556Z,7.73
2018-02-15T03:45:43.275Z,6.07
2018-02-15T03:48:10.830Z,7.13
2018-02-15T03:50:38.367Z,6.03
2018-02-15T03:53:05.931Z,8.40
2018-02-15T03:55:33.495Z,7.60
2018-02-15T03:58:01.264Z,8.13
2018-02-15T04:00:28.822Z,8.63
2018-02-15T04:02:56.450Z,6.60
2018-02-15T04:05:24.153Z,7.87
2018-02-15T04:07:51.692Z,5.13
2018-02-15T04:10:19.465Z,7.43
2018-02-15T04:12:47.001Z,6.47
2018-02-15T04:15:14.647Z,7.50
2018-02-15T04:17:42.193Z,7.77
2018-02-15T04:20:11.426Z,8.20
2018-02-15T04:22:38.977Z,6.13
2018-02-15T04:25:06.655Z,5.73
2018-02-15T04:27:34.269Z,7.60
2018-02-15T04:30:01.893Z,7.50
2018-02-15T04:32:29.651Z,7.37
2018-02-15T04:34:57.193Z,6.80
2018-02-15T04:37:24.877Z,5.87
2018-02-15T04:39:52.430Z,7.20
2018-02-15T04:42:20.092Z,5.40
2018-02-15T04:44:47.853Z,6.50
2018-02-15T04:47:15.632Z,6.83
2018-02-15T04:49:43.388Z,4.20
2018-02-15T04:52:11.140Z,7.17
2018-02-15T04:54:38.844Z,6.23
2018-02-15T04:57:06.385Z,7.00
2018-02-15T04:59:33.948Z,8.17
2018-02-15T05:02:02.266Z,8.00
2018-02-15T05:04:29.966Z,7.70
2018-02-15T05:06:57.731Z,8.37
2018-02-15T05:09:25.490Z,8.17
2018-02-15T05:11:53.230Z,8.30
2018-02-15T05:14:21.111Z,8.20
2018-02-15T05:16:48.712Z,8.50
2018-02-15T05:19:16.244Z,7.67
2018-02-15T05:21:44.016Z,8.20
2018-02-15T05:24:11.766Z,7.63
2018-02-15T05:26:39.454Z,9.70
2018-02-15T05:29:07.007Z,9.50
2018-02-15T05:31:34.709Z,7.53
2018-02-15T05:34:02.538Z,8.70
2018-02-15T05:36:30.082Z,8.57
2018-02-15T05:38:57.736Z,7.07
2018-02-15T05:41:25.423Z,8.00
2018-02-15T05:43:52.963Z,7.27
2018-02-15T05:46:20.530Z,7.37
2018-02-15T05:48:48.092Z,7.97
2018-02-15T05:51:15.865Z,6.80
2018-02-15T05:53:43.423Z,6.60
2018-02-15T05:56:11.096Z,6.90
2018-02-15T05:58:38.630Z,6.67
2018-02-15T06:01:06.380Z,6.93
2018-02-15T06:03:34.088Z,7.40
2018-02-15T06:06:01.630Z,4.93
2018-02-15T06:08:29.286Z,7.07
2018-02-15T06:10:56.827Z,6.80
2018-02-15T06:13:24.513Z,6.97
2018-02-15T06:15:52.073Z,7.53
2018-02-15T06:18:19.604Z,7.53
2018-02-15T06:20:47.136Z,7.70
2018-02-15T06:23:14.720Z,6.10
2018-02-15T06:25:42.263Z,7.40
2018-02-15T06:28:09.899Z,7.27
2018-02-15T06:30:37.715Z,7.93
2018-02-15T06:33:05.261Z,7.70
2018-02-15T06:35:32.886Z,8.87
2018-02-15T06:38:00.698Z,9.43
2018-02-15T06:40:28.458Z,12.03
2018-02-15T06:42:56.010Z,11.27
2018-02-15T06:45:23.578Z,12.50
2018-02-15T06:47:51.130Z,10.53
2018-02-15T06:50:18.694Z,9.63
2018-02-15T06:52:46.260Z,8.63
2018-02-15T06:55:14.113Z,8.37
2018-02-15T06:57:41.845Z,8.60
2018-02-15T07:00:09.647Z,7.73
2018-02-15T07:02:37.405Z,8.93
2018-02-15T07:05:04.972Z,8.43
2018-02-15T07:07:32.604Z,9.57
2018-02-15T07:10:00.156Z,10.57
2018-02-15T07:12:27.958Z,8.27
2018-02-15T07:14:55.504Z,8.33
2018-02-15T07:17:23.048Z,7.93
2018-02-15T07:19:50.608Z,8.80
2018-02-15T07:22:18.173Z,7.60
2018-02-15T07:24:45.709Z,6.50
2018-02-15T07:27:13.314Z,6.40
2018-02-15T07:29:41.065Z,6.13
2018-02-15T07:32:08.620Z,5.83
2018-02-15T07:34:36.157Z,6.03
2018-02-15T07:37:03.722Z,6.30
2018-02-15T07:39:31.257Z,6.57
2018-02-15T07:41:59.585Z,7.13
2018-02-15T07:44:27.673Z,6.43
2018-02-15T07:46:56.502Z,6.63
2018-02-15T07:49:25.036Z,5.77
2018-02-15T07:51:52.776Z,4.83
2018-02-15T07:54:20.325Z,7.20
2018-02-15T07:56:47.870Z,6.60
2018-02-15T07:59:16.193Z,6.70
2018-02-15T08:01:43.840Z,6.07
2018-02-15T08:04:11.583Z,5.57
2018-02-15T08:06:39.151Z,4.73
2018-02-15T08:09:06.698Z,5.63
2018-02-15T08:11:34.277Z,5.07
2018-02-15T08:14:01.831Z,5.77
2018-02-15T08:16:29.374Z,5.40
2018-02-15T08:18:56.971Z,5.87
2018-02-15T08:21:24.525Z,6.00
2018-02-15T08:23:52.077Z,9.10
2018-02-15T08:26:19.612Z,5.67
2018-02-15T08:28:47.345Z,5.73
2018-02-15T08:31:14.892Z,6.57
2018-02-15T08:33:42.416Z,5.13
2018-02-15T08:36:09.971Z,5.90
2018-02-15T08:38:37.517Z,4.83
2018-02-15T08:41:05.061Z,4.37
2018-02-15T08:43:32.625Z,4.90
2018-02-15T08:46:00.166Z,6.07
2018-02-15T08:48:27.985Z,4.50
2018-02-15T08:50:55.555Z,6.10
2018-02-15T08:53:23.148Z,6.23
2018-02-15T08:55:50.691Z,5.60
2018-02-15T08:58:19.098Z,5.60
2018-02-15T09:00:46.642Z,5.37
2018-02-15T09:03:14.213Z,5.70
2018-02-15T09:05:42.746Z,6.17
2018-02-15T09:08:10.270Z,6.10
2018-02-15T09:10:37.810Z,5.53
2018-02-15T09:13:05.351Z,5.60
2018-02-15T09:15:33.652Z,5.90
2018-02-15T09:18:01.467Z,5.60
2018-02-15T09:20:29.218Z,5.77
2018-02-15T09:22:56.982Z,5.83
2018-02-15T09:25:24.525Z,6.33
2018-02-15T09:27:52.088Z,5.00
2018-02-15T09:30:19.638Z,6.63
2018-02-15T09:32:47.173Z,6.37
2018-02-15T09:35:14.731Z,5.13
2018-02-15T09:37:42.412Z,6.50
2018-02-15T09:40:10.047Z,5.83
2018-02-15T09:42:37.624Z,6.10
2018-02-15T09:45:05.272Z,6.00
2018-02-15T09:47:33.007Z,6.77
2018-02-15T09:50:00.793Z,6.33
2018-02-15T09:52:28.392Z,5.63
2018-02-15T09:54:56.053Z,5.63
2018-02-15T09:57:23.914Z,6.33
2018-02-15T09:59:51.489Z,6.00
2018-02-15T10:02:19.049Z,5.60
2018-02-15T10:04:46.760Z,5.50
2018-02-15T10:07:14.479Z,6.60
2018-02-15T10:09:42.341Z,5.83
2018-02-15T10:12:09.898Z,5.67
2018-02-15T10:14:37.455Z,5.70
2018-02-15T10:17:04.993Z,6.67
2018-02-15T10:19:32.792Z,6.70
2018-02-15T10:22:00.336Z,6.17
2018-02-15T10:24:27.905Z,7.57
2018-02-15T10:26:55.463Z,7.73
2018-02-15T10:29:23.264Z,6.47
2018-02-15T10:31:50.786Z,7.70
2018-02-15T10:34:18.405Z,7.00
2018-02-15T10:36:46.178Z,7.80
2018-02-15T10:39:13.958Z,8.83
2018-02-15T10:41:41.729Z,6.83
2018-02-15T10:44:09.409Z,9.33
2018-02-15T10:46:36.959Z,13.07
2018-02-15T10:49:04.709Z,10.00
2018-02-15T10:51:32.262Z,16.93
2018-02-15T10:54:00.584Z,12.00
2018-02-15T10:56:28.190Z,11.23
2018-02-15T10:58:55.730Z,9.83
2018-02-15T11:01:28.994Z,8.93
2018-02-15T11:04:02.304Z,9.37
2018-02-15T11:06:29.854Z,9.67
2018-02-15T11:08:57.788Z,11.40
2018-02-15T11:11:25.528Z,9.23
2018-02-15T11:13:53.103Z,10.07
2018-02-15T11:16:20.889Z,10.93
2018-02-15T11:18:48.629Z,9.87
2018-02-15T11:21:16.409Z,10.00
2018-02-15T11:23:43.952Z,9.27
2018-02-15T11:26:11.638Z,10.00
2018-02-15T11:28:39.368Z,9.57
2018-02-15T11:31:07.140Z,10.23
2018-02-15T11:33:34.865Z,10.00
2018-02-15T11:36:02.440Z,8.93
2018-02-15T11:38:30.028Z,8.80
2018-02-15T11:40:57.588Z,9.53
2018-02-15T11:43:25.369Z,10.00
2018-02-15T11:45:53.118Z,9.63
2018-02-15T11:48:20.808Z,9.20
2018-02-15T11:50:48.375Z,10.40
2018-02-15T11:53:16.695Z,10.23
2018-02-15T11:55:44.244Z,11.13
2018-02-15T11:58:11.817Z,10.77
2018-02-15T12:00:39.373Z,10.93
2018-02-15T12:03:07.152Z,11.07
2018-02-15T12:05:34.696Z,10.70
2018-02-15T12:08:02.246Z,10.87
2018-02-15T12:10:29.795Z,11.07
2018-02-15T12:12:57.348Z,10.57
2018-02-15T12:15:25.660Z,10.93
2018-02-15T12:17:53.425Z,12.80
2018-02-15T12:20:21.121Z,13.83
2018-02-15T12:22:48.662Z,16.83
2018-02-15T12:25:16.219Z,13.63
2018-02-15T12:27:43.870Z,10.40
2018-02-15T12:30:11.406Z,12.87
2018-02-15T12:32:38.960Z,11.87
2018-02-15T12:35:06.529Z,12.43
2018-02-15T12:37:34.079Z,13.53
2018-02-15T12:40:01.650Z,11.13
2018-02-15T12:42:29.203Z,10.93
2018-02-15T12:44:56.894Z,11.03
2018-02-15T12:47:24.423Z,10.93
2018-02-15T12:49:51.995Z,10.40
2018-02-15T12:52:19.623Z,11.00
2018-02-15T12:54:47.169Z,9.57
2018-02-15T12:57:16.706Z,10.17
2018-02-15T12:59:44.248Z,9.77
2018-02-15T13:02:11.901Z,9.57
2018-02-15T13:04:39.474Z,11.00
2018-02-15T13:07:07.031Z,10.57
2018-02-15T13:09:34.626Z,10.07
2018-02-15T13:12:02.388Z,10.27
2018-02-15T13:14:30.713Z,10.07
2018-02-15T13:16:59.042Z,11.47
2018-02-15T13:19:38.594Z,16.03
2018-02-15T13:25:23.658Z,9.87
2018-02-15T13:28:03.225Z,8.87
2018-02-15T13:30:30.865Z,9.77
2018-02-15T13:32:58.439Z,8.53
2018-02-15T13:35:26.013Z,8.67
2018-02-15T13:37:54.462Z,9.03
2018-02-15T13:40:22.015Z,8.63
2018-02-15T13:42:49.576Z,9.20
2018-02-15T13:47:59.601Z,9.90
2018-02-15T13:53:21.508Z,9.47
2018-02-15T13:55:49.068Z,8.17
2018-02-15T13:58:16.639Z,9.83
2018-02-15T14:00:44.209Z,8.47
2018-02-15T14:03:12.560Z,9.10
2018-02-15T14:05:40.152Z,8.30
2018-02-15T14:08:08.494Z,9.70
2018-02-15T14:10:37.267Z,9.43
2018-02-15T14:13:04.907Z,8.63
2018-02-15T14:15:32.488Z,8.03
2018-02-15T14:18:00.082Z,8.90
2018-02-15T14:20:27.674Z,9.30
2018-02-15T14:22:56.005Z,8.20
2018-02-15T14:25:23.619Z,9.53
2018-02-15T14:27:51.184Z,10.10
2018-02-15T14:30:18.753Z,8.53
2018-02-15T14:32:46.337Z,8.70
2018-02-15T14:35:13.991Z,10.10
2018-02-15T14:37:41.562Z,8.83
2018-02-15T14:40:09.150Z,8.03
2018-02-15T14:42:36.715Z,9.23
2018-02-15T14:45:04.289Z,7.87
2018-02-15T14:47:32.632Z,8.70
2018-02-15T14:50:00.199Z,7.77
2018-02-15T14:52:27.759Z,7.80
2018-02-15T14:54:55.333Z,8.47
2018-02-15T14:57:22.982Z,8.47
2018-02-15T14:59:50.564Z,7.90
2018-02-15T15:02:18.173Z,10.17
2018-02-15T15:04:45.789Z,8.37
2018-02-15T15:07:13.357Z,15.67
2018-02-15T15:09:41.918Z,9.20
2018-02-15T15:12:09.472Z,7.93
2018-02-15T15:14:37.138Z,7.47
2018-02-15T15:17:04.804Z,8.53
2018-02-15T15:19:33.962Z,8.10
2018-02-15T15:22:01.560Z,7.50
2018-02-15T15:24:29.146Z,7.23
2018-02-15T15:26:57.483Z,7.30
2018-02-15T15:29:25.174Z,8.07
2018-02-15T15:31:52.823Z,8.60
2018-02-15T15:34:20.371Z,8.03
2018-02-15T15:36:48.033Z,7.70
2018-02-15T15:39:15.610Z,7.70
2018-02-15T15:41:43.172Z,7.87
2018-02-15T15:44:10.837Z,7.03
2018-02-15T15:46:38.412Z,7.07
2018-02-15T15:49:06.766Z,7.07
2018-02-15T15:51:35.867Z,7.63
2018-02-15T15:54:03.513Z,6.90
2018-02-15T15:56:31.083Z,7.23
2018-02-15T15:58:58.635Z,6.17
2018-02-15T16:01:26.231Z,5.30
2018-02-15T16:03:54.574Z,5.40
2018-02-15T16:06:22.238Z,5.63
2018-02-15T16:08:50.599Z,5.73
2018-02-15T16:11:18.170Z,5.03
2018-02-15T16:13:45.707Z,4.77
2018-02-15T16:16:42.923Z,4.87
2018-02-15T16:19:10.551Z,4.83
2018-02-15T16:21:38.098Z,4.70
2018-02-15T16:24:06.405Z,4.93
2018-02-15T16:26:34.127Z,4.63
2018-02-15T16:29:01.671Z,4.70
2018-02-15T16:31:29.211Z,5.03
2018-02-15T16:33:57.410Z,5.10
2018-02-15T16:36:24.953Z,5.30
2018-02-15T16:38:52.502Z,4.80
2018-02-15T16:41:20.042Z,5.43
2018-02-15T16:43:47.615Z,5.87
2018-02-15T16:46:15.174Z,5.30
2018-02-15T16:48:42.798Z,6.23
2018-02-15T16:51:10.636Z,5.40
2018-02-15T16:53:38.214Z,5.83
2018-02-15T16:56:05.767Z,5.50
2018-02-15T16:58:33.318Z,5.30
2018-02-15T17:01:01.842Z,4.67
2018-02-15T17:03:29.396Z,5.23
2018-02-15T17:05:57.194Z,5.70
2018-02-15T17:08:24.742Z,4.87
2018-02-15T17:10:52.301Z,4.13
2018-02-15T17:13:19.858Z,4.23
2018-02-15T17:15:47.613Z,4.30
2018-02-15T17:18:15.157Z,4.33
2018-02-15T17:20:42.698Z,4.00
2018-02-15T17:23:10.286Z,3.33
2018-02-15T17:25:37.828Z,3.57
2018-02-15T17:28:05.519Z,4.23
2018-02-15T17:30:33.160Z,2.93
2018-02-15T17:33:00.723Z,3.40
2018-02-15T17:35:28.502Z,3.00
2018-02-15T17:37:56.061Z,3.57
2018-02-15T17:40:23.607Z,2.87
2018-02-15T17:42:51.136Z,3.43
2018-02-15T17:45:18.690Z,3.30
2018-02-15T17:47:46.995Z,3.57
2018-02-15T17:50:15.709Z,3.80
2018-02-15T17:52:43.470Z,3.60
2018-02-15T17:55:11.006Z,3.50
2018-02-15T17:57:38.569Z,3.50
2018-02-15T18:00:06.150Z,3.50
2018-02-15T18:02:33.691Z,3.83
2018-02-15T18:05:01.230Z,3.33
2018-02-15T18:07:28.787Z,3.60
2018-02-15T18:09:56.329Z,4.43
2018-02-15T18:12:24.667Z,3.33
2018-02-15T18:14:52.223Z,3.30
2018-02-15T18:17:19.782Z,3.37
2018-02-15T18:19:47.630Z,3.20
2018-02-15T18:22:15.353Z,3.27
2018-02-15T18:24:42.904Z,3.53
2018-02-15T18:27:11.227Z,3.30
2018-02-15T18:29:38.777Z,3.30
2018-02-15T18:32:06.426Z,3.40
2018-02-15T18:34:34.197Z,3.50
2018-02-15T18:37:01.731Z,2.80
2018-02-15T18:39:30.051Z,2.93
2018-02-15T18:41:57.819Z,2.47
2018-02-15T18:44:25.585Z,2.73
2018-02-15T18:46:53.145Z,3.00
2018-02-15T18:49:20.737Z,2.80
2018-02-15T18:51:48.302Z,2.90
2018-02-15T18:54:16.609Z,3.17
2018-02-15T18:56:44.156Z,3.13
2018-02-15T18:59:12.803Z,3.57
2018-02-15T19:01:40.362Z,2.20
2018-02-15T19:04:08.822Z,3.10
2018-02-15T19:06:36.393Z,3.37
2018-02-15T19:09:03.938Z,3.03
2018-02-15T19:11:31.487Z,3.63
2018-02-15T19:13:59.069Z,3.67
2018-02-15T19:16:26.824Z,4.57
2018-02-15T19:18:54.358Z,3.70
2018-02-15T19:21:21.933Z,3.27
2018-02-15T19:23:49.478Z,3.10
2018-02-15T19:26:17.263Z,3.90
2018-02-15T19:28:44.822Z,4.00
2018-02-15T19:31:12.364Z,3.20
2018-02-15T19:33:39.892Z,3.13
2018-02-15T19:36:07.708Z,3.07
2018-02-15T19:38:35.247Z,3.47
2018-02-15T19:41:02.859Z,4.37
2018-02-15T19:43:30.419Z,3.90
2018-02-15T19:45:58.028Z,5.30
2018-02-15T19:48:25.622Z,3.80
2018-02-15T19:50:53.371Z,4.33
2018-02-15T19:53:20.912Z,4.30
2018-02-15T19:55:48.469Z,5.17
2018-02-15T19:58:16.030Z,4.47
2018-02-15T20:00:43.749Z,4.00
2018-02-15T20:03:11.586Z,4.53
2018-02-15T20:05:39.135Z,4.63
2018-02-15T20:08:06.679Z,4.00
2018-02-15T20:10:34.239Z,4.50
2018-02-15T20:13:01.800Z,4.27
2018-02-15T20:15:35.075Z,3.80
2018-02-15T20:18:02.718Z,4.03
2018-02-15T20:20:30.260Z,5.07
2018-02-15T20:22:58.576Z,5.27
2018-02-15T20:25:26.144Z,4.20
2018-02-15T20:27:59.420Z,5.00
2018-02-15T20:30:26.975Z,5.63
2018-02-15T20:32:54.531Z,4.57
2018-02-15T20:35:22.344Z,4.93
2018-02-15T20:37:55.594Z,4.57
2018-02-15T20:40:28.708Z,3.67
2018-02-15T20:42:56.383Z,4.27
2018-02-15T20:45:23.932Z,4.20
2018-02-15T20:47:51.521Z,4.13
2018-02-15T20:50:24.695Z,4.30
2018-02-15T20:52:58.008Z,4.50
2018-02-15T20:55:31.268Z,5.20
2018-02-15T20:57:58.942Z,4.57
2018-02-15T21:00:26.484Z,7.70
2018-02-15T21:02:54.155Z,5.20
2018-02-15T21:05:21.890Z,6.90
2018-02-15T21:07:49.425Z,5.93
2018-02-15T21:10:17.754Z,6.70
2018-02-15T21:12:45.293Z,7.37
2018-02-15T21:18:33.903Z,6.67
2018-02-15T21:21:01.444Z,7.17
2018-02-15T21:23:28.999Z,7.83
2018-02-15T21:25:56.567Z,8.37
2018-02-15T21:28:24.335Z,9.03
2018-02-15T21:30:52.080Z,8.93
2018-02-15T21:33:19.865Z,8.90
2018-02-15T21:35:47.402Z,8.20
2018-02-15T21:38:15.020Z,10.33
2018-02-15T21:40:42.615Z,11.70
2018-02-15T21:43:10.256Z,11.00
2018-02-15T21:45:38.057Z,11.43
2018-02-15T21:48:05.829Z,10.10
2018-02-15T21:50:33.533Z,12.00
2018-02-15T21:53:01.314Z,12.07
2018-02-15T21:55:29.046Z,10.77
2018-02-15T21:57:56.583Z,9.87
2018-02-15T22:03:07.533Z,9.50
2018-02-15T22:05:35.054Z,8.83
2018-02-15T22:08:02.736Z,11.27
2018-02-15T22:10:30.308Z,9.83
2018-02-15T22:12:57.866Z,9.90
2018-02-15T22:15:25.423Z,11.10
2018-02-15T22:17:52.991Z,9.13
2018-02-15T22:20:20.561Z,10.33
2018-02-15T22:22:48.134Z,11.97
2018-02-15T22:25:15.773Z,9.43
2018-02-15T22:27:43.420Z,9.10
2018-02-15T22:30:11.082Z,8.60
2018-02-15T22:32:38.662Z,10.33
2018-02-15T22:35:06.208Z,8.73
2018-02-15T22:37:33.762Z,7.70
2018-02-15T22:40:01.331Z,8.00
2018-02-15T22:42:28.921Z,7.40
2018-02-15T22:44:57.974Z,6.33
2018-02-15T22:47:25.570Z,6.90
2018-02-15T22:49:53.126Z,7.27
2018-02-15T22:52:20.683Z,6.53
2018-02-15T22:54:48.253Z,7.20
2018-02-15T22:57:15.823Z,7.20
2018-02-15T22:59:43.361Z,6.73
2018-02-15T23:02:10.925Z,7.03
2018-02-15T23:04:38.491Z,5.90
2018-02-15T23:07:06.146Z,6.47
2018-02-15T23:09:33.696Z,7.10
2018-02-15T23:12:01.249Z,7.73
2018-02-15T23:14:28.789Z,8.80
2018-02-15T23:16:56.343Z,7.40
2018-02-15T23:19:23.905Z,8.80
2018-02-15T23:21:51.461Z,7.93
2018-02-15T23:24:19.050Z,8.13
2018-02-15T23:26:46.584Z,8.67
2018-02-15T23:29:14.141Z,9.27
2018-02-15T23:31:41.698Z,9.70
2018-02-15T23:34:09.257Z,8.93
2018-02-15T23:36:37.570Z,8.67
2018-02-15T23:39:05.218Z,9.37
2018-02-15T23:41:32.821Z,9.40
2018-02-15T23:44:00.366Z,9.37
2018-02-15T23:46:27.926Z,9.33
2018-02-15T23:48:55.485Z,7.90
2018-02-15T23:51:23.049Z,8.20
2018-02-15T23:53:50.606Z,9.37
2018-02-15T23:56:18.168Z,8.63
2018-02-15T23:58:45.753Z,9.47
